sensor_id;sensor_type;location;lat;lon;timestamp;noise_LAeq;noise_LA_min;noise_LA_max;noise_LA01;noise_LA95
74470;Laerm;62918;55.706;37.816;2023-04-29T00:00:27;62.99;56.80;68.42;;
74470;Laerm;62918;55.706;37.816;2023-04-29T00:00:58;62.93;56.60;69.39;;
74470;Laerm;62918;55.706;37.816;2023-04-29T00:01:28;64.61;58.00;68.91;;
74470;Laerm;62918;55.706;37.816;2023-04-29T00:01:59;55.38;50.93;66.28;;
74470;Laerm;62918;55.706;37.816;2023-04-29T00:02:30;55.70;50.72;68.95;;
74470;Laerm;62918;55.706;37.816;2023-04-29T00:03:01;57.82;51.48;63.70;;
74470;Laerm;62918;55.706;37.816;2023-04-29T00:03:37;62.94;58.72;69.06;;
74470;Laerm;62918;55.706;37.816;2023-04-29T00:05:14;61.41;51.20;69.92;;
74470;Laerm;62918;55.706;37.816;2023-04-29T00:05:45;65.11;57.39;71.72;;
74470;Laerm;62918;55.706;37.816;2023-04-29T00:06:15;62.34;53.20;69.92;;
74470;Laerm;62918;55.706;37.816;2023-04-29T00:06:46;60.49;54.48;67.46;;
74470;Laerm;62918;55.706;37.816;2023-04-29T00:07:19;63.52;55.13;72.36;;
74470;Laerm;62918;55.706;37.816;2023-04-29T00:07:51;61.85;54.30;70.24;;
74470;Laerm;62918;55.706;37.816;2023-04-29T00:08:25;58.27;54.12;68.73;;
74470;Laerm;62918;55.706;37.816;2023-04-29T00:08:56;62.10;53.97;67.67;;
74470;Laerm;62918;55.706;37.816;2023-04-29T00:09:26;61.24;51.35;67.72;;
74470;Laerm;62918;55.706;37.816;2023-04-29T00:09:57;56.37;52.17;61.91;;
74470;Laerm;62918;55.706;37.816;2023-04-29T00:10:28;54.26;50.43;63.44;;
74470;Laerm;62918;55.706;37.816;2023-04-29T00:10:58;54.36;50.76;61.71;;
74470;Laerm;62918;55.706;37.816;2023-04-29T00:11:29;61.11;55.32;64.77;;
74470;Laerm;62918;55.706;37.816;2023-04-29T00:11:59;66.36;53.16;84.23;;
74470;Laerm;62918;55.706;37.816;2023-04-29T00:12:37;63.04;54.92;69.82;;
74470;Laerm;62918;55.706;37.816;2023-04-29T00:13:28;62.46;50.31;70.57;;
74470;Laerm;62918;55.706;37.816;2023-04-29T00:13:59;57.19;49.88;64.88;;
74470;Laerm;62918;55.706;37.816;2023-04-29T00:14:29;51.89;49.48;62.14;;
74470;Laerm;62918;55.706;37.816;2023-04-29T00:15:00;53.58;49.79;60.68;;
74470;Laerm;62918;55.706;37.816;2023-04-29T00:15:32;61.77;53.85;67.87;;
74470;Laerm;62918;55.706;37.816;2023-04-29T00:16:03;61.14;55.31;67.62;;
74470;Laerm;62918;55.706;37.816;2023-04-29T00:16:34;58.00;52.26;63.59;;
74470;Laerm;62918;55.706;37.816;2023-04-29T00:17:05;63.28;53.57;69.11;;
74470;Laerm;62918;55.706;37.816;2023-04-29T00:17:36;59.24;52.91;64.98;;
74470;Laerm;62918;55.706;37.816;2023-04-29T00:18:06;57.97;50.97;68.76;;
74470;Laerm;62918;55.706;37.816;2023-04-29T00:18:41;52.05;49.66;58.86;;
74470;Laerm;62918;55.706;37.816;2023-04-29T00:19:12;54.49;49.72;63.36;;
74470;Laerm;62918;55.706;37.816;2023-04-29T00:19:42;61.51;55.88;72.63;;
74470;Laerm;62918;55.706;37.816;2023-04-29T00:20:13;67.84;56.96;81.49;;
74470;Laerm;62918;55.706;37.816;2023-04-29T00:20:47;59.25;50.92;67.78;;
74470;Laerm;62918;55.706;37.816;2023-04-29T00:21:17;59.75;53.27;66.11;;
74470;Laerm;62918;55.706;37.816;2023-04-29T00:22:14;62.04;51.99;70.31;;
74470;Laerm;62918;55.706;37.816;2023-04-29T00:22:47;61.28;51.58;70.20;;
74470;Laerm;62918;55.706;37.816;2023-04-29T00:23:18;65.04;57.09;73.40;;
74470;Laerm;62918;55.706;37.816;2023-04-29T00:23:49;60.30;54.13;65.38;;
74470;Laerm;62918;55.706;37.816;2023-04-29T00:24:20;59.09;53.10;63.82;;
74470;Laerm;62918;55.706;37.816;2023-04-29T00:24:50;54.64;50.87;62.11;;
74470;Laerm;62918;55.706;37.816;2023-04-29T00:25:22;55.26;49.99;62.96;;
74470;Laerm;62918;55.706;37.816;2023-04-29T00:25:53;60.52;52.05;69.24;;
74470;Laerm;62918;55.706;37.816;2023-04-29T00:26:23;53.96;50.47;60.66;;
74470;Laerm;62918;55.706;37.816;2023-04-29T00:26:54;66.45;57.43;72.12;;
74470;Laerm;62918;55.706;37.816;2023-04-29T00:27:27;58.93;50.18;67.66;;
74470;Laerm;62918;55.706;37.816;2023-04-29T00:28:01;55.08;50.11;62.88;;
74470;Laerm;62918;55.706;37.816;2023-04-29T00:28:31;59.00;52.22;65.93;;
74470;Laerm;62918;55.706;37.816;2023-04-29T00:29:05;63.51;53.52;69.46;;
74470;Laerm;62918;55.706;37.816;2023-04-29T00:29:35;54.95;50.26;62.29;;
74470;Laerm;62918;55.706;37.816;2023-04-29T00:30:12;57.60;51.60;67.95;;
74470;Laerm;62918;55.706;37.816;2023-04-29T00:31:03;66.74;52.46;80.67;;
74470;Laerm;62918;55.706;37.816;2023-04-29T00:31:33;62.58;55.86;73.01;;
74470;Laerm;62918;55.706;37.816;2023-04-29T00:32:04;64.84;51.50;82.92;;
74470;Laerm;62918;55.706;37.816;2023-04-29T00:32:35;63.12;55.30;82.71;;
74470;Laerm;62918;55.706;37.816;2023-04-29T00:33:05;62.00;52.68;69.51;;
74470;Laerm;62918;55.706;37.816;2023-04-29T00:33:36;54.50;51.29;61.49;;
74470;Laerm;62918;55.706;37.816;2023-04-29T00:34:10;53.98;50.44;66.07;;
74470;Laerm;62918;55.706;37.816;2023-04-29T00:34:46;61.65;51.07;71.80;;
74470;Laerm;62918;55.706;37.816;2023-04-29T00:35:17;67.19;55.33;76.34;;
74470;Laerm;62918;55.706;37.816;2023-04-29T00:35:48;54.80;51.57;62.13;;
74470;Laerm;62918;55.706;37.816;2023-04-29T00:36:21;60.15;53.18;67.14;;
74470;Laerm;62918;55.706;37.816;2023-04-29T00:36:52;63.96;53.67;70.87;;
74470;Laerm;62918;55.706;37.816;2023-04-29T00:37:28;62.55;56.48;66.55;;
74470;Laerm;62918;55.706;37.816;2023-04-29T00:37:59;57.02;52.72;62.57;;
74470;Laerm;62918;55.706;37.816;2023-04-29T00:38:29;56.09;51.52;62.74;;
74470;Laerm;62918;55.706;37.816;2023-04-29T00:39:00;61.06;52.45;68.18;;
74470;Laerm;62918;55.706;37.816;2023-04-29T00:39:30;59.52;52.86;67.38;;
74470;Laerm;62918;55.706;37.816;2023-04-29T00:40:01;58.66;51.91;67.32;;
74470;Laerm;62918;55.706;37.816;2023-04-29T00:40:37;64.24;54.94;69.30;;
74470;Laerm;62918;55.706;37.816;2023-04-29T00:41:10;61.02;53.08;70.46;;
74470;Laerm;62918;55.706;37.816;2023-04-29T00:41:46;63.16;55.69;70.78;;
74470;Laerm;62918;55.706;37.816;2023-04-29T00:42:20;61.24;53.74;67.02;;
74470;Laerm;62918;55.706;37.816;2023-04-29T00:42:51;61.56;54.22;70.81;;
74470;Laerm;62918;55.706;37.816;2023-04-29T00:43:25;60.42;53.24;66.10;;
74470;Laerm;62918;55.706;37.816;2023-04-29T00:43:58;57.67;52.20;66.56;;
74470;Laerm;62918;55.706;37.816;2023-04-29T00:44:29;64.39;55.30;69.66;;
74470;Laerm;62918;55.706;37.816;2023-04-29T00:45:02;62.72;53.84;74.57;;
74470;Laerm;62918;55.706;37.816;2023-04-29T00:45:39;62.10;54.71;67.51;;
74470;Laerm;62918;55.706;37.816;2023-04-29T00:46:10;58.77;54.90;65.61;;
74470;Laerm;62918;55.706;37.816;2023-04-29T00:46:41;61.09;52.79;69.03;;
74470;Laerm;62918;55.706;37.816;2023-04-29T00:47:11;57.16;52.25;64.55;;
74470;Laerm;62918;55.706;37.816;2023-04-29T00:47:48;62.06;53.70;68.68;;
74470;Laerm;62918;55.706;37.816;2023-04-29T00:48:21;57.27;52.26;67.93;;
74470;Laerm;62918;55.706;37.816;2023-04-29T00:48:52;56.27;51.85;63.54;;
74470;Laerm;62918;55.706;37.816;2023-04-29T00:49:31;61.03;53.70;70.80;;
74470;Laerm;62918;55.706;37.816;2023-04-29T00:50:12;62.64;53.06;69.13;;
74470;Laerm;62918;55.706;37.816;2023-04-29T00:50:42;56.92;52.76;65.03;;
74470;Laerm;62918;55.706;37.816;2023-04-29T00:51:13;56.66;52.13;65.59;;
74470;Laerm;62918;55.706;37.816;2023-04-29T00:51:48;61.54;53.32;69.49;;
74470;Laerm;62918;55.706;37.816;2023-04-29T00:52:19;64.75;55.73;69.46;;
74470;Laerm;62918;55.706;37.816;2023-04-29T00:52:53;57.85;52.92;64.81;;
74470;Laerm;62918;55.706;37.816;2023-04-29T00:53:26;61.45;54.26;68.44;;
74470;Laerm;62918;55.706;37.816;2023-04-29T00:54:09;59.70;52.64;65.35;;
74470;Laerm;62918;55.706;37.816;2023-04-29T00:54:40;58.93;53.16;68.99;;
74470;Laerm;62918;55.706;37.816;2023-04-29T00:55:14;61.14;53.47;68.49;;
74470;Laerm;62918;55.706;37.816;2023-04-29T00:55:49;59.73;53.67;65.40;;
74470;Laerm;62918;55.706;37.816;2023-04-29T00:56:21;59.77;52.61;67.60;;
74470;Laerm;62918;55.706;37.816;2023-04-29T00:56:56;59.26;51.80;67.21;;
74470;Laerm;62918;55.706;37.816;2023-04-29T00:57:28;60.87;54.54;67.66;;
74470;Laerm;62918;55.706;37.816;2023-04-29T00:58:00;61.71;55.09;67.41;;
74470;Laerm;62918;55.706;37.816;2023-04-29T00:58:32;64.13;54.97;71.94;;
74470;Laerm;62918;55.706;37.816;2023-04-29T00:59:04;56.53;53.37;65.58;;
74470;Laerm;62918;55.706;37.816;2023-04-29T00:59:39;59.92;53.77;66.16;;
74470;Laerm;62918;55.706;37.816;2023-04-29T01:00:10;54.25;51.37;64.45;;
74470;Laerm;62918;55.706;37.816;2023-04-29T01:00:44;62.65;52.45;68.47;;
74470;Laerm;62918;55.706;37.816;2023-04-29T01:01:16;54.60;50.89;63.70;;
74470;Laerm;62918;55.706;37.816;2023-04-29T01:01:46;55.44;51.25;64.83;;
74470;Laerm;62918;55.706;37.816;2023-04-29T01:02:17;56.19;52.56;62.83;;
74470;Laerm;62918;55.706;37.816;2023-04-29T01:02:57;63.74;52.84;71.90;;
74470;Laerm;62918;55.706;37.816;2023-04-29T01:03:32;64.98;56.12;73.56;;
74470;Laerm;62918;55.706;37.816;2023-04-29T01:04:05;62.01;55.55;67.67;;
74470;Laerm;62918;55.706;37.816;2023-04-29T01:04:37;62.10;55.12;66.90;;
74470;Laerm;62918;55.706;37.816;2023-04-29T01:05:07;60.28;55.94;65.25;;
74470;Laerm;62918;55.706;37.816;2023-04-29T01:05:38;60.55;52.59;67.45;;
74470;Laerm;62918;55.706;37.816;2023-04-29T01:07:15;55.07;52.27;67.15;;
74470;Laerm;62918;55.706;37.816;2023-04-29T01:08:20;60.49;52.72;67.20;;
74470;Laerm;62918;55.706;37.816;2023-04-29T01:10:39;59.71;53.05;66.85;;
74470;Laerm;62918;55.706;37.816;2023-04-29T01:11:11;56.26;51.76;63.73;;
74470;Laerm;62918;55.706;37.816;2023-04-29T01:12:14;54.52;51.78;61.47;;
74470;Laerm;62918;55.706;37.816;2023-04-29T01:13:10;58.24;51.26;66.66;;
74470;Laerm;62918;55.706;37.816;2023-04-29T01:13:50;58.67;52.54;64.12;;
74470;Laerm;62918;55.706;37.816;2023-04-29T01:14:25;57.35;52.98;64.29;;
74470;Laerm;62918;55.706;37.816;2023-04-29T01:15:22;61.88;53.92;70.42;;
74470;Laerm;62918;55.706;37.816;2023-04-29T01:16:33;56.64;51.22;64.35;;
74470;Laerm;62918;55.706;37.816;2023-04-29T01:17:05;56.58;51.07;64.50;;
74470;Laerm;62918;55.706;37.816;2023-04-29T01:17:50;61.79;51.60;69.47;;
74470;Laerm;62918;55.706;37.816;2023-04-29T01:18:28;60.67;56.05;65.92;;
74470;Laerm;62918;55.706;37.816;2023-04-29T01:20:03;59.71;51.41;66.47;;
74470;Laerm;62918;55.706;37.816;2023-04-29T01:20:37;63.20;54.49;69.51;;
74470;Laerm;62918;55.706;37.816;2023-04-29T01:21:17;62.23;54.90;67.24;;
74470;Laerm;62918;55.706;37.816;2023-04-29T01:22:10;61.35;51.49;72.42;;
74470;Laerm;62918;55.706;37.816;2023-04-29T01:22:42;55.30;50.16;64.37;;
74470;Laerm;62918;55.706;37.816;2023-04-29T01:23:12;57.94;52.68;62.69;;
74470;Laerm;62918;55.706;37.816;2023-04-29T01:23:43;52.81;49.98;61.13;;
74470;Laerm;62918;55.706;37.816;2023-04-29T01:24:17;52.31;49.67;61.41;;
74470;Laerm;62918;55.706;37.816;2023-04-29T01:24:51;60.60;53.29;65.94;;
74470;Laerm;62918;55.706;37.816;2023-04-29T01:25:21;53.32;50.02;65.09;;
74470;Laerm;62918;55.706;37.816;2023-04-29T01:25:55;59.23;50.32;66.96;;
74470;Laerm;62918;55.706;37.816;2023-04-29T01:26:29;52.59;50.19;62.46;;
74470;Laerm;62918;55.706;37.816;2023-04-29T01:28:20;57.94;50.60;68.87;;
74470;Laerm;62918;55.706;37.816;2023-04-29T01:29:31;57.96;50.46;69.12;;
74470;Laerm;62918;55.706;37.816;2023-04-29T01:30:28;58.95;50.88;66.51;;
74470;Laerm;62918;55.706;37.816;2023-04-29T01:31:45;59.56;54.04;66.12;;
74470;Laerm;62918;55.706;37.816;2023-04-29T01:32:28;56.13;50.86;62.85;;
74470;Laerm;62918;55.706;37.816;2023-04-29T01:34:08;61.51;49.75;67.39;;
74470;Laerm;62918;55.706;37.816;2023-04-29T01:34:30;57.57;51.35;66.66;;
74470;Laerm;62918;55.706;37.816;2023-04-29T01:38:00;58.34;50.69;66.06;;
74470;Laerm;62918;55.706;37.816;2023-04-29T01:38:55;57.62;51.12;65.51;;
74470;Laerm;62918;55.706;37.816;2023-04-29T01:39:56;58.84;51.24;66.86;;
74470;Laerm;62918;55.706;37.816;2023-04-29T01:40:49;58.89;52.71;66.00;;
74470;Laerm;62918;55.706;37.816;2023-04-29T01:41:39;57.29;52.29;62.32;;
74470;Laerm;62918;55.706;37.816;2023-04-29T01:43:03;55.08;51.57;63.33;;
74470;Laerm;62918;55.706;37.816;2023-04-29T01:43:42;64.60;51.88;70.11;;
74470;Laerm;62918;55.706;37.816;2023-04-29T01:44:18;58.61;50.31;64.69;;
74470;Laerm;62918;55.706;37.816;2023-04-29T01:44:52;59.76;52.95;67.52;;
74470;Laerm;62918;55.706;37.816;2023-04-29T01:45:28;60.13;51.96;66.53;;
74470;Laerm;62918;55.706;37.816;2023-04-29T01:46:01;55.51;50.74;61.75;;
74470;Laerm;62918;55.706;37.816;2023-04-29T01:46:34;62.70;54.28;71.50;;
74470;Laerm;62918;55.706;37.816;2023-04-29T01:47:15;61.25;54.03;67.21;;
74470;Laerm;62918;55.706;37.816;2023-04-29T01:47:47;55.67;50.84;61.69;;
74470;Laerm;62918;55.706;37.816;2023-04-29T01:48:41;61.78;54.38;67.43;;
74470;Laerm;62918;55.706;37.816;2023-04-29T01:49:16;62.33;54.58;73.55;;
74470;Laerm;62918;55.706;37.816;2023-04-29T01:49:52;58.13;50.70;66.19;;
74470;Laerm;62918;55.706;37.816;2023-04-29T01:50:23;53.59;49.54;59.27;;
74470;Laerm;62918;55.706;37.816;2023-04-29T01:50:53;64.29;55.22;68.76;;
74470;Laerm;62918;55.706;37.816;2023-04-29T01:51:24;57.48;50.72;65.08;;
74470;Laerm;62918;55.706;37.816;2023-04-29T01:51:54;57.74;52.29;63.59;;
74470;Laerm;62918;55.706;37.816;2023-04-29T01:52:28;56.49;51.93;62.80;;
74470;Laerm;62918;55.706;37.816;2023-04-29T01:52:58;55.88;51.74;62.36;;
74470;Laerm;62918;55.706;37.816;2023-04-29T01:53:29;55.60;51.64;59.88;;
74470;Laerm;62918;55.706;37.816;2023-04-29T01:54:00;59.17;53.04;69.90;;
74470;Laerm;62918;55.706;37.816;2023-04-29T01:54:30;60.75;52.94;68.41;;
74470;Laerm;62918;55.706;37.816;2023-04-29T01:55:04;55.31;51.21;62.02;;
74470;Laerm;62918;55.706;37.816;2023-04-29T01:55:35;62.14;54.02;67.06;;
74470;Laerm;62918;55.706;37.816;2023-04-29T01:56:09;65.37;55.92;71.41;;
74470;Laerm;62918;55.706;37.816;2023-04-29T01:56:39;55.69;51.58;62.47;;
74470;Laerm;62918;55.706;37.816;2023-04-29T01:57:13;63.49;56.38;68.93;;
74470;Laerm;62918;55.706;37.816;2023-04-29T01:57:43;63.65;53.62;68.71;;
74470;Laerm;62918;55.706;37.816;2023-04-29T01:58:14;56.00;51.78;60.90;;
74470;Laerm;62918;55.706;37.816;2023-04-29T01:58:45;57.79;53.79;64.95;;
74470;Laerm;62918;55.706;37.816;2023-04-29T01:59:15;59.62;51.67;68.18;;
74470;Laerm;62918;55.706;37.816;2023-04-29T01:59:46;58.95;51.01;66.09;;
74470;Laerm;62918;55.706;37.816;2023-04-29T02:00:17;59.84;54.95;65.02;;
74470;Laerm;62918;55.706;37.816;2023-04-29T02:00:48;58.74;53.04;64.26;;
74470;Laerm;62918;55.706;37.816;2023-04-29T02:01:18;60.14;51.82;66.74;;
74470;Laerm;62918;55.706;37.816;2023-04-29T02:01:49;62.10;52.11;69.66;;
74470;Laerm;62918;55.706;37.816;2023-04-29T02:02:20;53.09;50.94;60.80;;
74470;Laerm;62918;55.706;37.816;2023-04-29T02:02:52;56.94;51.70;64.23;;
74470;Laerm;62918;55.706;37.816;2023-04-29T02:03:24;60.55;52.43;66.82;;
74470;Laerm;62918;55.706;37.816;2023-04-29T02:03:54;64.81;58.85;69.51;;
74470;Laerm;62918;55.706;37.816;2023-04-29T02:04:25;65.19;57.38;71.69;;
74470;Laerm;62918;55.706;37.816;2023-04-29T02:04:57;61.23;51.43;66.94;;
74470;Laerm;62918;55.706;37.816;2023-04-29T02:05:28;53.39;51.05;61.02;;
74470;Laerm;62918;55.706;37.816;2023-04-29T02:06:03;56.27;50.85;64.10;;
74470;Laerm;62918;55.706;37.816;2023-04-29T02:06:33;61.42;54.46;66.28;;
74470;Laerm;62918;55.706;37.816;2023-04-29T02:07:04;63.97;58.41;68.54;;
74470;Laerm;62918;55.706;37.816;2023-04-29T02:07:34;60.90;53.82;65.33;;
74470;Laerm;62918;55.706;37.816;2023-04-29T02:08:05;55.16;52.22;62.60;;
74470;Laerm;62918;55.706;37.816;2023-04-29T02:08:37;57.12;53.25;63.70;;
74470;Laerm;62918;55.706;37.816;2023-04-29T02:09:07;61.77;56.43;65.42;;
74470;Laerm;62918;55.706;37.816;2023-04-29T02:09:38;61.58;57.25;69.52;;
74470;Laerm;62918;55.706;37.816;2023-04-29T02:10:09;60.35;55.12;66.89;;
74470;Laerm;62918;55.706;37.816;2023-04-29T02:10:40;61.30;53.39;66.09;;
74470;Laerm;62918;55.706;37.816;2023-04-29T02:11:10;56.80;53.02;61.78;;
74470;Laerm;62918;55.706;37.816;2023-04-29T02:11:41;63.26;57.95;68.09;;
74470;Laerm;62918;55.706;37.816;2023-04-29T02:12:11;60.17;54.75;65.09;;
74470;Laerm;62918;55.706;37.816;2023-04-29T02:12:42;58.58;52.82;67.25;;
74470;Laerm;62918;55.706;37.816;2023-04-29T02:13:13;56.15;52.34;64.77;;
74470;Laerm;62918;55.706;37.816;2023-04-29T02:13:43;62.39;56.36;68.70;;
74470;Laerm;62918;55.706;37.816;2023-04-29T02:14:14;62.51;54.10;67.55;;
74470;Laerm;62918;55.706;37.816;2023-04-29T02:14:45;62.25;54.62;66.18;;
74470;Laerm;62918;55.706;37.816;2023-04-29T02:15:17;59.36;53.96;63.80;;
74470;Laerm;62918;55.706;37.816;2023-04-29T02:15:48;58.49;53.27;64.85;;
74470;Laerm;62918;55.706;37.816;2023-04-29T02:16:19;58.95;53.91;64.81;;
74470;Laerm;62918;55.706;37.816;2023-04-29T02:16:50;62.49;52.58;66.76;;
74470;Laerm;62918;55.706;37.816;2023-04-29T02:17:20;61.65;57.04;67.49;;
74470;Laerm;62918;55.706;37.816;2023-04-29T02:17:51;62.96;58.11;72.71;;
74470;Laerm;62918;55.706;37.816;2023-04-29T02:18:22;64.24;57.03;69.74;;
74470;Laerm;62918;55.706;37.816;2023-04-29T02:18:52;60.24;54.76;65.78;;
74470;Laerm;62918;55.706;37.816;2023-04-29T02:19:23;59.58;53.35;64.40;;
74470;Laerm;62918;55.706;37.816;2023-04-29T02:19:53;63.18;54.49;68.09;;
74470;Laerm;62918;55.706;37.816;2023-04-29T02:20:24;58.87;53.49;65.03;;
74470;Laerm;62918;55.706;37.816;2023-04-29T02:20:59;59.71;52.33;65.22;;
74470;Laerm;62918;55.706;37.816;2023-04-29T02:21:31;62.23;57.61;67.43;;
74470;Laerm;62918;55.706;37.816;2023-04-29T02:22:01;57.76;53.24;64.87;;
74470;Laerm;62918;55.706;37.816;2023-04-29T02:22:32;59.26;53.52;67.55;;
74470;Laerm;62918;55.706;37.816;2023-04-29T02:23:03;62.91;55.48;67.86;;
74470;Laerm;62918;55.706;37.816;2023-04-29T02:23:34;63.20;56.81;68.80;;
74470;Laerm;62918;55.706;37.816;2023-04-29T02:24:05;64.28;58.03;70.62;;
74470;Laerm;62918;55.706;37.816;2023-04-29T02:24:36;61.24;53.48;68.83;;
74470;Laerm;62918;55.706;37.816;2023-04-29T02:25:07;57.87;54.08;63.98;;
74470;Laerm;62918;55.706;37.816;2023-04-29T02:25:37;61.39;54.04;67.72;;
74470;Laerm;62918;55.706;37.816;2023-04-29T02:26:08;61.94;55.95;68.26;;
74470;Laerm;62918;55.706;37.816;2023-04-29T02:26:39;58.52;54.32;63.60;;
74470;Laerm;62918;55.706;37.816;2023-04-29T02:27:10;62.91;56.54;68.48;;
74470;Laerm;62918;55.706;37.816;2023-04-29T02:27:40;65.86;61.04;69.62;;
74470;Laerm;62918;55.706;37.816;2023-04-29T02:28:11;62.75;58.37;68.80;;
74470;Laerm;62918;55.706;37.816;2023-04-29T02:28:42;66.80;59.97;76.36;;
74470;Laerm;62918;55.706;37.816;2023-04-29T02:29:13;59.02;56.56;62.30;;
74470;Laerm;62918;55.706;37.816;2023-04-29T02:29:44;60.63;55.47;64.78;;
74470;Laerm;62918;55.706;37.816;2023-04-29T02:30:14;63.52;57.80;68.86;;
74470;Laerm;62918;55.706;37.816;2023-04-29T02:30:45;59.32;55.23;63.74;;
74470;Laerm;62918;55.706;37.816;2023-04-29T02:31:15;59.91;55.26;64.58;;
74470;Laerm;62918;55.706;37.816;2023-04-29T02:31:46;62.14;56.24;66.98;;
74470;Laerm;62918;55.706;37.816;2023-04-29T02:32:16;63.49;56.61;68.75;;
74470;Laerm;62918;55.706;37.816;2023-04-29T02:32:49;58.60;55.59;65.06;;
74470;Laerm;62918;55.706;37.816;2023-04-29T02:33:20;64.87;57.81;72.22;;
74470;Laerm;62918;55.706;37.816;2023-04-29T02:33:51;62.49;56.72;67.11;;
74470;Laerm;62918;55.706;37.816;2023-04-29T02:34:21;64.41;58.39;70.55;;
74470;Laerm;62918;55.706;37.816;2023-04-29T02:34:53;62.07;57.17;66.14;;
74470;Laerm;62918;55.706;37.816;2023-04-29T02:35:23;60.34;56.13;66.10;;
74470;Laerm;62918;55.706;37.816;2023-04-29T02:35:54;61.64;56.63;67.46;;
74470;Laerm;62918;55.706;37.816;2023-04-29T02:36:25;62.61;57.89;66.32;;
74470;Laerm;62918;55.706;37.816;2023-04-29T02:36:55;61.55;55.46;69.63;;
74470;Laerm;62918;55.706;37.816;2023-04-29T02:37:26;64.51;55.89;72.46;;
74470;Laerm;62918;55.706;37.816;2023-04-29T02:37:57;64.88;57.04;71.28;;
74470;Laerm;62918;55.706;37.816;2023-04-29T02:38:28;60.77;56.26;68.16;;
74470;Laerm;62918;55.706;37.816;2023-04-29T02:38:59;67.20;59.57;71.91;;
74470;Laerm;62918;55.706;37.816;2023-04-29T02:39:29;63.19;54.74;70.87;;
74470;Laerm;62918;55.706;37.816;2023-04-29T02:40:00;60.43;55.43;65.90;;
74470;Laerm;62918;55.706;37.816;2023-04-29T02:40:32;58.46;54.44;66.48;;
74470;Laerm;62918;55.706;37.816;2023-04-29T02:41:03;64.10;59.92;68.17;;
74470;Laerm;62918;55.706;37.816;2023-04-29T02:41:34;65.01;59.12;70.59;;
74470;Laerm;62918;55.706;37.816;2023-04-29T02:42:05;64.58;57.05;69.22;;
74470;Laerm;62918;55.706;37.816;2023-04-29T02:42:35;63.02;57.18;69.14;;
74470;Laerm;62918;55.706;37.816;2023-04-29T02:43:07;65.34;57.81;70.48;;
74470;Laerm;62918;55.706;37.816;2023-04-29T02:43:37;63.66;59.01;69.39;;
74470;Laerm;62918;55.706;37.816;2023-04-29T02:44:08;64.96;59.72;68.82;;
74470;Laerm;62918;55.706;37.816;2023-04-29T02:44:38;64.65;56.86;69.33;;
74470;Laerm;62918;55.706;37.816;2023-04-29T02:45:10;65.74;58.21;70.88;;
74470;Laerm;62918;55.706;37.816;2023-04-29T02:45:41;64.77;58.79;69.95;;
74470;Laerm;62918;55.706;37.816;2023-04-29T02:46:12;65.48;58.85;70.76;;
74470;Laerm;62918;55.706;37.816;2023-04-29T02:46:42;63.10;58.09;69.93;;
74470;Laerm;62918;55.706;37.816;2023-04-29T02:47:15;64.49;58.66;69.37;;
74470;Laerm;62918;55.706;37.816;2023-04-29T02:47:45;63.05;57.46;69.38;;
74470;Laerm;62918;55.706;37.816;2023-04-29T02:48:16;61.16;55.91;66.80;;
74470;Laerm;62918;55.706;37.816;2023-04-29T02:48:47;64.04;56.06;69.02;;
74470;Laerm;62918;55.706;37.816;2023-04-29T02:49:17;66.14;60.17;73.16;;
74470;Laerm;62918;55.706;37.816;2023-04-29T02:49:48;62.90;58.39;66.79;;
74470;Laerm;62918;55.706;37.816;2023-04-29T02:50:19;60.90;55.94;67.32;;
74470;Laerm;62918;55.706;37.816;2023-04-29T02:50:49;58.06;54.33;66.77;;
74470;Laerm;62918;55.706;37.816;2023-04-29T02:51:20;64.10;58.14;70.34;;
74470;Laerm;62918;55.706;37.816;2023-04-29T02:51:51;67.09;57.71;72.47;;
74470;Laerm;62918;55.706;37.816;2023-04-29T02:52:21;62.54;56.86;68.27;;
74470;Laerm;62918;55.706;37.816;2023-04-29T02:52:52;61.83;56.54;67.59;;
74470;Laerm;62918;55.706;37.816;2023-04-29T02:53:23;63.02;56.56;69.53;;
74470;Laerm;62918;55.706;37.816;2023-04-29T02:53:53;64.35;57.97;79.52;;
74470;Laerm;62918;55.706;37.816;2023-04-29T02:54:24;63.70;60.49;68.87;;
74470;Laerm;62918;55.706;37.816;2023-04-29T02:54:55;62.36;56.15;67.73;;
74470;Laerm;62918;55.706;37.816;2023-04-29T02:55:25;62.36;58.16;69.48;;
74470;Laerm;62918;55.706;37.816;2023-04-29T02:55:56;64.44;60.20;68.19;;
74470;Laerm;62918;55.706;37.816;2023-04-29T02:56:27;65.68;60.39;71.38;;
74470;Laerm;62918;55.706;37.816;2023-04-29T02:56:58;65.67;59.54;70.82;;
74470;Laerm;62918;55.706;37.816;2023-04-29T02:57:29;61.95;55.74;67.47;;
74470;Laerm;62918;55.706;37.816;2023-04-29T02:58:01;60.63;54.52;66.41;;
74470;Laerm;62918;55.706;37.816;2023-04-29T02:58:33;64.45;55.06;70.72;;
74470;Laerm;62918;55.706;37.816;2023-04-29T02:59:03;63.80;55.11;69.93;;
74470;Laerm;62918;55.706;37.816;2023-04-29T02:59:34;62.23;55.60;67.84;;
74470;Laerm;62918;55.706;37.816;2023-04-29T03:00:05;64.23;59.43;69.10;;
74470;Laerm;62918;55.706;37.816;2023-04-29T03:00:40;68.14;59.65;76.33;;
74470;Laerm;62918;55.706;37.816;2023-04-29T03:01:10;62.88;56.44;70.05;;
74470;Laerm;62918;55.706;37.816;2023-04-29T03:01:41;61.09;54.82;70.71;;
74470;Laerm;62918;55.706;37.816;2023-04-29T03:02:12;60.27;54.32;69.07;;
74470;Laerm;62918;55.706;37.816;2023-04-29T03:02:43;60.08;54.81;67.93;;
74470;Laerm;62918;55.706;37.816;2023-04-29T03:03:13;63.19;57.35;67.79;;
74470;Laerm;62918;55.706;37.816;2023-04-29T03:03:44;59.63;55.70;66.84;;
74470;Laerm;62918;55.706;37.816;2023-04-29T03:04:15;65.85;58.08;71.76;;
74470;Laerm;62918;55.706;37.816;2023-04-29T03:04:46;62.49;56.31;68.72;;
74470;Laerm;62918;55.706;37.816;2023-04-29T03:05:17;59.95;55.40;65.77;;
74470;Laerm;62918;55.706;37.816;2023-04-29T03:05:48;65.28;55.22;71.52;;
74470;Laerm;62918;55.706;37.816;2023-04-29T03:06:25;61.91;55.36;68.86;;
74470;Laerm;62918;55.706;37.816;2023-04-29T03:06:57;64.88;60.10;69.17;;
74470;Laerm;62918;55.706;37.816;2023-04-29T03:07:27;68.02;60.04;75.90;;
74470;Laerm;62918;55.706;37.816;2023-04-29T03:07:59;66.46;63.43;70.15;;
74470;Laerm;62918;55.706;37.816;2023-04-29T03:08:37;64.12;56.88;70.07;;
74470;Laerm;62918;55.706;37.816;2023-04-29T03:09:08;64.77;57.67;70.02;;
74470;Laerm;62918;55.706;37.816;2023-04-29T03:09:39;65.82;61.50;70.20;;
74470;Laerm;62918;55.706;37.816;2023-04-29T03:10:10;66.98;61.24;72.96;;
74470;Laerm;62918;55.706;37.816;2023-04-29T03:10:44;68.29;61.47;73.39;;
74470;Laerm;62918;55.706;37.816;2023-04-29T03:11:15;64.29;54.62;72.18;;
74470;Laerm;62918;55.706;37.816;2023-04-29T03:11:49;64.61;54.56;70.89;;
74470;Laerm;62918;55.706;37.816;2023-04-29T03:12:20;63.95;55.99;70.51;;
74470;Laerm;62918;55.706;37.816;2023-04-29T03:12:51;62.89;55.74;68.32;;
74470;Laerm;62918;55.706;37.816;2023-04-29T03:13:22;64.11;57.89;69.15;;
74470;Laerm;62918;55.706;37.816;2023-04-29T03:13:52;60.14;53.58;67.80;;
74470;Laerm;62918;55.706;37.816;2023-04-29T03:14:23;63.40;57.67;70.69;;
74470;Laerm;62918;55.706;37.816;2023-04-29T03:14:54;68.61;61.23;74.17;;